sensor_id;sensor_type;location;lat;lon;timestamp;temperature;humidity
49052;DHT22;34866;48.670;18.260;2023-03-04T00:01:59;13.20;6451.20
49052;DHT22;34866;48.670;18.260;2023-03-04T00:04:26;13.40;6451.20
49052;DHT22;34866;48.670;18.260;2023-03-04T00:06:55;13.50;6451.20
49052;DHT22;34866;48.670;18.260;2023-03-04T00:09:21;13.70;6451.20
49052;DHT22;34866;48.670;18.260;2023-03-04T00:11:47;38.40;6451.20
49052;DHT22;34866;48.670;18.260;2023-03-04T00:14:14;38.60;6451.20
49052;DHT22;34866;48.670;18.260;2023-03-04T00:16:40;38.50;6451.20
49052;DHT22;34866;48.670;18.260;2023-03-04T00:19:05;38.60;6451.20
49052;DHT22;34866;48.670;18.260;2023-03-04T00:21:31;38.70;6451.20
49052;DHT22;34866;48.670;18.260;2023-03-04T00:23:57;38.70;6451.20
49052;DHT22;34866;48.670;18.260;2023-03-04T00:26:23;38.70;6451.20
49052;DHT22;34866;48.670;18.260;2023-03-04T00:28:49;38.60;6451.20
49052;DHT22;34866;48.670;18.260;2023-03-04T00:31:15;38.70;6451.20
49052;DHT22;34866;48.670;18.260;2023-03-04T00:33:41;38.70;6451.20
49052;DHT22;34866;48.670;18.260;2023-03-04T00:36:09;38.70;6451.20
49052;DHT22;34866;48.670;18.260;2023-03-04T00:38:35;38.80;6451.20
49052;DHT22;34866;48.670;18.260;2023-03-04T00:41:01;38.80;6451.20
49052;DHT22;34866;48.670;18.260;2023-03-04T00:43:26;38.90;6451.20
49052;DHT22;34866;48.670;18.260;2023-03-04T00:45:52;38.90;6451.20
49052;DHT22;34866;48.670;18.260;2023-03-04T00:48:18;39.00;6451.20
49052;DHT22;34866;48.670;18.260;2023-03-04T00:50:44;39.00;6451.20
49052;DHT22;34866;48.670;18.260;2023-03-04T00:53:10;39.20;6451.20
49052;DHT22;34866;48.670;18.260;2023-03-04T00:55:36;39.20;6451.20
49052;DHT22;34866;48.670;18.260;2023-03-04T00:58:03;39.10;6451.20
49052;DHT22;34866;48.670;18.260;2023-03-04T01:00:28;39.30;6451.20
49052;DHT22;34866;48.670;18.260;2023-03-04T01:02:54;39.30;6451.20
49052;DHT22;34866;48.670;18.260;2023-03-04T01:05:21;39.20;6451.20
49052;DHT22;34866;48.670;18.260;2023-03-04T01:07:47;39.20;6451.20
49052;DHT22;34866;48.670;18.260;2023-03-04T01:10:14;39.20;6451.20
49052;DHT22;34866;48.670;18.260;2023-03-04T01:12:40;64.10;6451.20
49052;DHT22;34866;48.670;18.260;2023-03-04T01:15:08;64.10;6451.20
49052;DHT22;34866;48.670;18.260;2023-03-04T01:17:34;64.10;6451.20
49052;DHT22;34866;48.670;18.260;2023-03-04T01:19:59;64.20;6451.20
49052;DHT22;34866;48.670;18.260;2023-03-04T01:22:25;64.10;6451.20
49052;DHT22;34866;48.670;18.260;2023-03-04T01:24:51;64.00;6451.20
49052;DHT22;34866;48.670;18.260;2023-03-04T01:27:16;39.30;6451.20
49052;DHT22;34866;48.670;18.260;2023-03-04T01:29:42;39.30;6451.20
49052;DHT22;34866;48.670;18.260;2023-03-04T01:32:08;39.30;6451.20
49052;DHT22;34866;48.670;18.260;2023-03-04T01:34:33;39.20;6451.20
49052;DHT22;34866;48.670;18.260;2023-03-04T01:37:00;39.30;6451.20
49052;DHT22;34866;48.670;18.260;2023-03-04T01:39:26;39.30;128.00
49052;DHT22;34866;48.670;18.260;2023-03-04T01:41:52;39.20;128.00
49052;DHT22;34866;48.670;18.260;2023-03-04T01:44:24;39.00;6451.20
49052;DHT22;34866;48.670;18.260;2023-03-04T01:46:57;38.90;6451.20
49052;DHT22;34866;48.670;18.260;2023-03-04T01:49:23;38.80;6451.20
49052;DHT22;34866;48.670;18.260;2023-03-04T01:51:52;38.80;6451.20
49052;DHT22;34866;48.670;18.260;2023-03-04T01:54:21;38.70;6451.20
49052;DHT22;34866;48.670;18.260;2023-03-04T01:56:49;38.70;6451.20
49052;DHT22;34866;48.670;18.260;2023-03-04T01:59:17;38.70;6451.20
49052;DHT22;34866;48.670;18.260;2023-03-04T02:01:47;38.60;6451.20
49052;DHT22;34866;48.670;18.260;2023-03-04T02:04:15;38.50;6451.20
49052;DHT22;34866;48.670;18.260;2023-03-04T02:06:41;38.50;6451.20
49052;DHT22;34866;48.670;18.260;2023-03-04T02:09:08;38.50;6451.20
49052;DHT22;34866;48.670;18.260;2023-03-04T02:11:35;38.60;6451.20
49052;DHT22;34866;48.670;18.260;2023-03-04T02:14:02;38.70;6451.20
49052;DHT22;34866;48.670;18.260;2023-03-04T02:16:27;38.60;6451.20
49052;DHT22;34866;48.670;18.260;2023-03-04T02:18:54;38.40;6451.20
49052;DHT22;34866;48.670;18.260;2023-03-04T02:21:31;13.60;6451.20
49052;DHT22;34866;48.670;18.260;2023-03-04T02:24:31;13.60;6451.20
49052;DHT22;34866;48.670;18.260;2023-03-04T02:26:58;13.60;6451.20
49052;DHT22;34866;48.670;18.260;2023-03-04T02:29:24;13.60;6451.20
49052;DHT22;34866;48.670;18.260;2023-03-04T02:31:51;38.40;6451.20
49052;DHT22;34866;48.670;18.260;2023-03-04T02:34:45;38.50;6451.20
49052;DHT22;34866;48.670;18.260;2023-03-04T02:37:11;38.60;6451.20
49052;DHT22;34866;48.670;18.260;2023-03-04T02:39:42;38.70;6451.20
49052;DHT22;34866;48.670;18.260;2023-03-04T02:42:09;38.90;6451.20
49052;DHT22;34866;48.670;18.260;2023-03-04T02:44:40;39.00;6451.20
49052;DHT22;34866;48.670;18.260;2023-03-04T02:47:09;39.00;6451.20
49052;DHT22;34866;48.670;18.260;2023-03-04T02:49:37;39.10;6451.20
49052;DHT22;34866;48.670;18.260;2023-03-04T02:52:06;39.30;6451.20
49052;DHT22;34866;48.670;18.260;2023-03-04T02:54:33;64.00;6451.20
49052;DHT22;34866;48.670;18.260;2023-03-04T02:57:03;64.00;6451.20
49052;DHT22;34866;48.670;18.260;2023-03-04T02:59:29;64.10;6451.20
49052;DHT22;34866;48.670;18.260;2023-03-04T03:01:55;64.20;6451.20
49052;DHT22;34866;48.670;18.260;2023-03-04T03:04:22;64.20;6451.20
49052;DHT22;34866;48.670;18.260;2023-03-04T03:06:49;64.30;6451.20
49052;DHT22;34866;48.670;18.260;2023-03-04T03:09:15;64.40;6451.20
49052;DHT22;34866;48.670;18.260;2023-03-04T03:11:41;64.30;6451.20
49052;DHT22;34866;48.670;18.260;2023-03-04T03:14:07;64.20;6451.20
49052;DHT22;34866;48.670;18.260;2023-03-04T03:16:33;64.30;6451.20
49052;DHT22;34866;48.670;18.260;2023-03-04T03:19:00;64.40;6451.20
49052;DHT22;34866;48.670;18.260;2023-03-04T03:21:26;64.50;6451.20
49052;DHT22;34866;48.670;18.260;2023-03-04T03:23:52;64.60;6451.20
49052;DHT22;34866;48.670;18.260;2023-03-04T03:26:18;64.50;6451.20
49052;DHT22;34866;48.670;18.260;2023-03-04T03:28:44;64.40;6451.20
49052;DHT22;34866;48.670;18.260;2023-03-04T03:31:10;64.50;6451.20
49052;DHT22;34866;48.670;18.260;2023-03-04T03:33:35;64.60;6476.80
49052;DHT22;34866;48.670;18.260;2023-03-04T03:36:02;64.70;128.00
49052;DHT22;34866;48.670;18.260;2023-03-04T03:38:28;64.80;204.80
49052;DHT22;34866;48.670;18.260;2023-03-04T03:40:53;64.70;716.80
49052;DHT22;34866;48.670;18.260;2023-03-04T03:43:22;64.80;844.80
49052;DHT22;34866;48.670;18.260;2023-03-04T03:45:51;89.70;1254.40
49052;DHT22;34866;48.670;18.260;2023-03-04T03:48:17;64.90;1382.40
49052;DHT22;34866;48.670;18.260;2023-03-04T03:50:43;64.90;1536.00
49052;DHT22;34866;48.670;18.260;2023-03-04T03:53:10;89.60;1152.00
49052;DHT22;34866;48.670;18.260;2023-03-04T03:55:36;64.90;1331.20
49052;DHT22;34866;48.670;18.260;2023-03-04T03:58:03;89.60;1228.80
49052;DHT22;34866;48.670;18.260;2023-03-04T04:00:30;64.90;1280.00
49052;DHT22;34866;48.670;18.260;2023-03-04T04:02:57;89.90;1228.80
49052;DHT22;34866;48.670;18.260;2023-03-04T04:05:24;89.70;1305.60
49052;DHT22;34866;48.670;18.260;2023-03-04T04:07:50;89.70;1024.00
49052;DHT22;34866;48.670;18.260;2023-03-04T04:10:15;89.70;1228.80
49052;DHT22;34866;48.670;18.260;2023-03-04T04:12:41;89.70;1510.40
49052;DHT22;34866;48.670;18.260;2023-03-04T04:15:10;89.80;1356.80
49052;DHT22;34866;48.670;18.260;2023-03-04T04:17:36;90.40;1536.00
49052;DHT22;34866;48.670;18.260;2023-03-04T04:20:02;89.60;1561.60
49052;DHT22;34866;48.670;18.260;2023-03-04T04:22:28;89.70;1638.40
49052;DHT22;34866;48.670;18.260;2023-03-04T04:24:54;89.70;1766.40
49052;DHT22;34866;48.670;18.260;2023-03-04T04:27:19;89.70;1868.80
49052;DHT22;34866;48.670;18.260;2023-03-04T04:29:45;89.70;1894.40
49052;DHT22;34866;48.670;18.260;2023-03-04T04:32:11;89.80;1945.60
49052;DHT22;34866;48.670;18.260;2023-03-04T04:34:37;89.70;1792.00
49052;DHT22;34866;48.670;18.260;2023-03-04T04:37:03;89.80;1766.40
49052;DHT22;34866;48.670;18.260;2023-03-04T04:39:29;89.90;1843.20
49052;DHT22;34866;48.670;18.260;2023-03-04T04:41:55;90.00;2048.00
49052;DHT22;34866;48.670;18.260;2023-03-04T04:44:21;90.00;2176.00
49052;DHT22;34866;48.670;18.260;2023-03-04T04:46:46;90.00;2176.00
49052;DHT22;34866;48.670;18.260;2023-03-04T04:49:12;89.90;2176.00
49052;DHT22;34866;48.670;18.260;2023-03-04T04:51:38;89.90;2176.00
49052;DHT22;34866;48.670;18.260;2023-03-04T04:54:05;89.90;2176.00
49052;DHT22;34866;48.670;18.260;2023-03-04T04:56:31;90.10;2176.00
49052;DHT22;34866;48.670;18.260;2023-03-04T04:59:02;90.20;2176.00
49052;DHT22;34866;48.670;18.260;2023-03-04T05:01:29;90.10;2176.00
49052;DHT22;34866;48.670;18.260;2023-03-04T05:03:55;90.10;2176.00
49052;DHT22;34866;48.670;18.260;2023-03-04T05:06:22;90.10;2176.00
49052;DHT22;34866;48.670;18.260;2023-03-04T05:08:48;90.20;2176.00
49052;DHT22;34866;48.670;18.260;2023-03-04T05:11:16;90.20;2176.00
49052;DHT22;34866;48.670;18.260;2023-03-04T05:13:46;90.30;2176.00
49052;DHT22;34866;48.670;18.260;2023-03-04T05:16:12;90.40;2176.00
49052;DHT22;34866;48.670;18.260;2023-03-04T05:18:38;90.40;2176.00
49052;DHT22;34866;48.670;18.260;2023-03-04T05:21:04;115.30;2176.00
49052;DHT22;34866;48.670;18.260;2023-03-04T05:23:36;115.20;2176.00
49052;DHT22;34866;48.670;18.260;2023-03-04T05:26:03;115.40;2176.00
49052;DHT22;34866;48.670;18.260;2023-03-04T05:28:30;115.20;2176.00
49052;DHT22;34866;48.670;18.260;2023-03-04T05:30:56;115.20;2176.00
49052;DHT22;34866;48.670;18.260;2023-03-04T05:33:21;115.20;2176.00
49052;DHT22;34866;48.670;18.260;2023-03-04T05:35:47;90.50;2176.00
49052;DHT22;34866;48.670;18.260;2023-03-04T05:38:16;90.40;2176.00
49052;DHT22;34866;48.670;18.260;2023-03-04T05:40:42;90.40;2176.00
49052;DHT22;34866;48.670;18.260;2023-03-04T05:43:08;90.30;2176.00
49052;DHT22;34866;48.670;18.260;2023-03-04T05:45:34;90.30;2176.00
49052;DHT22;34866;48.670;18.260;2023-03-04T05:48:00;90.30;2176.00
49052;DHT22;34866;48.670;18.260;2023-03-04T05:50:27;90.20;2176.00
49052;DHT22;34866;48.670;18.260;2023-03-04T05:52:53;90.20;2176.00
49052;DHT22;34866;48.670;18.260;2023-03-04T05:55:19;90.20;2176.00
49052;DHT22;34866;48.670;18.260;2023-03-04T05:57:45;90.20;2176.00
49052;DHT22;34866;48.670;18.260;2023-03-04T06:00:12;90.40;1996.80
49052;DHT22;34866;48.670;18.260;2023-03-04T06:02:42;90.30;2099.20
49052;DHT22;34866;48.670;18.260;2023-03-04T06:05:11;90.40;2073.60
49052;DHT22;34866;48.670;18.260;2023-03-04T06:07:37;90.30;2176.00
49052;DHT22;34866;48.670;18.260;2023-03-04T06:10:05;90.30;2176.00
49052;DHT22;34866;48.670;18.260;2023-03-04T06:12:31;90.30;2176.00
49052;DHT22;34866;48.670;18.260;2023-03-04T06:14:56;90.20;2176.00
49052;DHT22;34866;48.670;18.260;2023-03-04T06:17:22;90.20;2176.00
49052;DHT22;34866;48.670;18.260;2023-03-04T06:19:49;90.10;2176.00
49052;DHT22;34866;48.670;18.260;2023-03-04T06:22:16;90.00;2176.00
49052;DHT22;34866;48.670;18.260;2023-03-04T06:24:42;89.90;2176.00
49052;DHT22;34866;48.670;18.260;2023-03-04T06:27:08;89.60;2201.60
49052;DHT22;34866;48.670;18.260;2023-03-04T06:29:34;39.30;2201.60
49052;DHT22;34866;48.670;18.260;2023-03-04T06:32:00;0.50;6451.20
49052;DHT22;34866;48.670;18.260;2023-03-04T06:34:26;51.40;6476.80
49052;DHT22;34866;48.670;18.260;2023-03-04T06:36:54;77.20;6476.80
49052;DHT22;34866;48.670;18.260;2023-03-04T06:39:21;51.90;384.00
49052;DHT22;34866;48.670;18.260;2023-03-04T06:41:47;77.20;6502.40
49052;DHT22;34866;48.670;18.260;2023-03-04T06:44:13;51.60;6476.80
49052;DHT22;34866;48.670;18.260;2023-03-04T06:46:38;76.90;128.00
49052;DHT22;34866;48.670;18.260;2023-03-04T06:49:04;77.30;6476.80
49052;DHT22;34866;48.670;18.260;2023-03-04T06:51:30;77.30;6476.80
49052;DHT22;34866;48.670;18.260;2023-03-04T06:53:56;51.80;6476.80
49052;DHT22;34866;48.670;18.260;2023-03-04T06:56:21;52.10;128.00
49052;DHT22;34866;48.670;18.260;2023-03-04T06:58:47;77.20;6476.80
49052;DHT22;34866;48.670;18.260;2023-03-04T07:01:21;102.70;6476.80
49052;DHT22;34866;48.670;18.260;2023-03-04T07:03:49;77.40;6476.80
49052;DHT22;34866;48.670;18.260;2023-03-04T07:06:17;77.70;6476.80
49052;DHT22;34866;48.670;18.260;2023-03-04T07:08:43;52.00;6476.80
49052;DHT22;34866;48.670;18.260;2023-03-04T07:11:09;76.80;6476.80
49052;DHT22;34866;48.670;18.260;2023-03-04T07:13:35;51.40;6476.80
49052;DHT22;34866;48.670;18.260;2023-03-04T07:16:04;76.90;6476.80
49052;DHT22;34866;48.670;18.260;2023-03-04T07:18:30;51.90;6476.80
49052;DHT22;34866;48.670;18.260;2023-03-04T07:20:55;76.90;6476.80
49052;DHT22;34866;48.670;18.260;2023-03-04T07:23:22;77.20;6476.80
49052;DHT22;34866;48.670;18.260;2023-03-04T07:25:48;77.70;6476.80
49052;DHT22;34866;48.670;18.260;2023-03-04T07:28:15;77.70;6476.80
49052;DHT22;34866;48.670;18.260;2023-03-04T07:30:40;77.20;6476.80
49052;DHT22;34866;48.670;18.260;2023-03-04T07:33:06;77.10;6476.80
49052;DHT22;34866;48.670;18.260;2023-03-04T07:35:31;77.00;6476.80
49052;DHT22;34866;48.670;18.260;2023-03-04T07:37:57;77.20;6476.80
49052;DHT22;34866;48.670;18.260;2023-03-04T07:40:23;76.90;6476.80
49052;DHT22;34866;48.670;18.260;2023-03-04T07:42:53;77.40;6476.80
49052;DHT22;34866;48.670;18.260;2023-03-04T07:45:19;77.70;6476.80
49052;DHT22;34866;48.670;18.260;2023-03-04T07:47:45;77.70;6476.80
49052;DHT22;34866;48.670;18.260;2023-03-04T07:50:12;102.40;6476.80
49052;DHT22;34866;48.670;18.260;2023-03-04T07:52:39;102.70;6476.80
49052;DHT22;34866;48.670;18.260;2023-03-04T07:55:05;102.70;6476.80
49052;DHT22;34866;48.670;18.260;2023-03-04T07:57:31;103.00;6476.80
49052;DHT22;34866;48.670;18.260;2023-03-04T07:59:58;103.10;6476.80
49052;DHT22;34866;48.670;18.260;2023-03-04T08:02:23;128.30;6502.40
49052;DHT22;34866;48.670;18.260;2023-03-04T08:04:49;102.80;6476.80
49052;DHT22;34866;48.670;18.260;2023-03-04T08:07:15;102.50;6476.80
49052;DHT22;34866;48.670;18.260;2023-03-04T08:09:41;77.60;6476.80
49052;DHT22;34866;48.670;18.260;2023-03-04T08:12:07;102.90;6476.80
49052;DHT22;34866;48.670;18.260;2023-03-04T08:14:32;103.10;6476.80
49052;DHT22;34866;48.670;18.260;2023-03-04T08:16:58;102.50;6476.80
49052;DHT22;34866;48.670;18.260;2023-03-04T08:19:26;102.60;6476.80
49052;DHT22;34866;48.670;18.260;2023-03-04T08:21:51;128.30;6502.40
49052;DHT22;34866;48.670;18.260;2023-03-04T08:24:17;128.40;6502.40
49052;DHT22;34866;48.670;18.260;2023-03-04T08:26:45;102.50;6476.80
49052;DHT22;34866;48.670;18.260;2023-03-04T08:29:14;128.00;6502.40
49052;DHT22;34866;48.670;18.260;2023-03-04T08:31:41;153.70;6502.40
49052;DHT22;34866;48.670;18.260;2023-03-04T08:34:08;128.20;6502.40
49052;DHT22;34866;48.670;18.260;2023-03-04T08:36:35;128.00;6502.40
49052;DHT22;34866;48.670;18.260;2023-03-04T08:39:03;128.40;6502.40
49052;DHT22;34866;48.670;18.260;2023-03-04T08:41:28;128.20;6502.40
49052;DHT22;34866;48.670;18.260;2023-03-04T08:43:54;128.70;6502.40
49052;DHT22;34866;48.670;18.260;2023-03-04T08:46:20;154.30;6502.40
49052;DHT22;34866;48.670;18.260;2023-03-04T08:48:46;179.40;6502.40
49052;DHT22;34866;48.670;18.260;2023-03-04T08:51:13;153.90;6502.40
49052;DHT22;34866;48.670;18.260;2023-03-04T08:53:39;179.30;6502.40
49052;DHT22;34866;48.670;18.260;2023-03-04T08:56:07;154.20;6502.40
49052;DHT22;34866;48.670;18.260;2023-03-04T08:58:34;179.70;6502.40
49052;DHT22;34866;48.670;18.260;2023-03-04T09:01:00;154.50;6502.40
49052;DHT22;34866;48.670;18.260;2023-03-04T09:03:27;179.70;6502.40
49052;DHT22;34866;48.670;18.260;2023-03-04T09:05:52;179.80;6502.40
49052;DHT22;34866;48.670;18.260;2023-03-04T09:08:18;154.20;6502.40
49052;DHT22;34866;48.670;18.260;2023-03-04T09:10:45;179.90;6502.40
49052;DHT22;34866;48.670;18.260;2023-03-04T09:13:12;180.10;6502.40
49052;DHT22;34866;48.670;18.260;2023-03-04T09:15:45;179.60;6502.40
49052;DHT22;34866;48.670;18.260;2023-03-04T09:18:13;179.80;6502.40
49052;DHT22;34866;48.670;18.260;2023-03-04T09:20:41;180.00;6502.40
49052;DHT22;34866;48.670;18.260;2023-03-04T09:23:06;205.00;6502.40
49052;DHT22;34866;48.670;18.260;2023-03-04T09:25:34;205.30;6502.40
49052;DHT22;34866;48.670;18.260;2023-03-04T09:28:00;205.70;6502.40
49052;DHT22;34866;48.670;18.260;2023-03-04T09:30:26;230.50;6502.40
49052;DHT22;34866;48.670;18.260;2023-03-04T09:32:56;205.70;6502.40
49052;DHT22;34866;48.670;18.260;2023-03-04T09:35:22;205.60;6502.40
49052;DHT22;34866;48.670;18.260;2023-03-04T09:37:48;180.10;6502.40
49052;DHT22;34866;48.670;18.260;2023-03-04T09:40:23;256.60;6502.40
49052;DHT22;34866;48.670;18.260;2023-03-04T09:42:53;307.70;128.00
49052;DHT22;34866;48.670;18.260;2023-03-04T09:45:22;333.00;128.00
49052;DHT22;34866;48.670;18.260;2023-03-04T09:47:51;333.40;128.00
49052;DHT22;34866;48.670;18.260;2023-03-04T09:50:19;307.70;128.00
49052;DHT22;34866;48.670;18.260;2023-03-04T09:53:22;282.40;6528.00
49052;DHT22;34866;48.670;18.260;2023-03-04T09:55:54;436.00;128.00
49052;DHT22;34866;48.670;18.260;2023-03-04T10:03:57;512.60;128.00
49052;DHT22;34866;48.670;18.260;2023-03-04T10:06:23;588.80;128.00
49052;DHT22;34866;48.670;18.260;2023-03-04T10:08:56;589.60;716.80
49052;DHT22;34866;48.670;18.260;2023-03-04T10:14:33;461.60;665.60
49052;DHT22;34866;48.670;18.260;2023-03-04T10:17:06;537.70;128.00
49052;DHT22;34866;48.670;18.260;2023-03-04T10:19:57;563.20;665.60
49052;DHT22;34866;48.670;18.260;2023-03-04T10:22:31;461.50;614.40
49052;DHT22;34866;48.670;18.260;2023-03-04T10:25:13;436.10;614.40
49052;DHT22;34866;48.670;18.260;2023-03-04T10:27:41;435.70;614.40
49052;DHT22;34866;48.670;18.260;2023-03-04T10:30:25;384.20;588.80
49052;DHT22;34866;48.670;18.260;2023-03-04T10:32:53;410.20;128.00
49052;DHT22;34866;48.670;18.260;2023-03-04T10:35:23;384.80;128.00
49052;DHT22;34866;48.670;18.260;2023-03-04T10:37:51;435.40;588.80
49052;DHT22;34866;48.670;18.260;2023-03-04T10:40:21;512.60;614.40
49052;DHT22;34866;48.670;18.260;2023-03-04T10:42:49;512.70;128.00
49052;DHT22;34866;48.670;18.260;2023-03-04T10:45:29;461.60;128.00
49052;DHT22;34866;48.670;18.260;2023-03-04T10:47:55;537.70;128.00
49052;DHT22;34866;48.670;18.260;2023-03-04T10:50:25;487.30;128.00
49052;DHT22;34866;48.670;18.260;2023-03-04T10:52:53;486.50;640.00
49052;DHT22;34866;48.670;18.260;2023-03-04T10:55:27;435.90;614.40
49052;DHT22;34866;48.670;18.260;2023-03-04T10:58:04;333.40;128.00
49052;DHT22;34866;48.670;18.260;2023-03-04T11:00:32;435.20;128.00
49052;DHT22;34866;48.670;18.260;2023-03-04T11:05:49;435.30;588.80
49052;DHT22;34866;48.670;18.260;2023-03-04T11:08:22;512.80;128.00
49052;DHT22;34866;48.670;18.260;2023-03-04T11:10:49;564.00;128.00
49052;DHT22;34866;48.670;18.260;2023-03-04T11:13:24;512.10;128.00
49052;DHT22;34866;48.670;18.260;2023-03-04T11:16:02;512.90;128.00
49052;DHT22;34866;48.670;18.260;2023-03-04T11:21:07;512.00;128.00
49052;DHT22;34866;48.670;18.260;2023-03-04T11:23:59;538.10;128.00
49052;DHT22;34866;48.670;18.260;2023-03-04T11:26:45;512.60;128.00
49052;DHT22;34866;48.670;18.260;2023-03-04T11:34:57;409.80;128.00
49052;DHT22;34866;48.670;18.260;2023-03-04T11:37:30;409.90;128.00
49052;DHT22;34866;48.670;18.260;2023-03-04T11:40:07;461.50;614.40
49052;DHT22;34866;48.670;18.260;2023-03-04T11:42:50;486.60;691.20
49052;DHT22;34866;48.670;18.260;2023-03-04T11:45:37;410.40;640.00
49052;DHT22;34866;48.670;18.260;2023-03-04T11:56:41;461.50;691.20
49052;DHT22;34866;48.670;18.260;2023-03-04T12:22:16;384.40;563.20
49052;DHT22;34866;48.670;18.260;2023-03-04T12:28:38;384.50;128.00
49052;DHT22;34866;48.670;18.260;2023-03-04T12:44:45;205.20;6502.40
49052;DHT22;34866;48.670;18.260;2023-03-04T12:47:28;179.80;6502.40
49052;DHT22;34866;48.670;18.260;2023-03-04T12:55:36;179.80;6502.40
49052;DHT22;34866;48.670;18.260;2023-03-04T12:58:03;179.40;6502.40
49052;DHT22;34866;48.670;18.260;2023-03-04T13:04:16;179.80;6502.40
49052;DHT22;34866;48.670;18.260;2023-03-04T13:09:51;179.20;6502.40
49052;DHT22;34866;48.670;18.260;2023-03-04T13:12:21;179.50;6502.40
49052;DHT22;34866;48.670;18.260;2023-03-04T13:17:54;154.20;6502.40
49052;DHT22;34866;48.670;18.260;2023-03-04T13:20:38;154.20;6502.40
49052;DHT22;34866;48.670;18.260;2023-03-04T13:25:42;154.50;6502.40
49052;DHT22;34866;48.670;18.260;2023-03-04T13:35:48;153.80;6502.40
49052;DHT22;34866;48.670;18.260;2023-03-04T13:43:56;128.90;6502.40
49052;DHT22;34866;48.670;18.260;2023-03-04T13:51:31;153.60;6502.40
49052;DHT22;34866;48.670;18.260;2023-03-04T14:02:01;153.70;6502.40
49052;DHT22;34866;48.670;18.260;2023-03-04T14:04:30;154.10;6502.40
49052;DHT22;34866;48.670;18.260;2023-03-04T14:06:57;154.40;6502.40
49052;DHT22;34866;48.670;18.260;2023-03-04T14:09:26;154.30;6502.40
49052;DHT22;34866;48.670;18.260;2023-03-04T14:11:56;154.10;6502.40
49052;DHT22;34866;48.670;18.260;2023-03-04T14:14:42;154.00;6502.40
49052;DHT22;34866;48.670;18.260;2023-03-04T14:17:18;153.60;6502.40
49052;DHT22;34866;48.670;18.260;2023-03-04T14:19:45;153.80;6502.40
49052;DHT22;34866;48.670;18.260;2023-03-04T14:22:32;154.10;6502.40
49052;DHT22;34866;48.670;18.260;2023-03-04T14:25:06;153.70;6502.40
49052;DHT22;34866;48.670;18.260;2023-03-04T14:27:44;153.60;6502.40
49052;DHT22;34866;48.670;18.260;2023-03-04T14:30:20;153.60;6502.40
49052;DHT22;34866;48.670;18.260;2023-03-04T14:32:46;153.80;6502.40
49052;DHT22;34866;48.670;18.260;2023-03-04T14:35:33;153.90;6502.40
49052;DHT22;34866;48.670;18.260;2023-03-04T14:40:35;153.70;6502.40
49052;DHT22;34866;48.670;18.260;2023-03-04T14:43:12;128.90;6502.40
49052;DHT22;34866;48.670;18.260;2023-03-04T14:45:41;153.60;6502.40
49052;DHT22;34866;48.670;18.260;2023-03-04T14:48:08;128.70;6502.40
49052;DHT22;34866;48.670;18.260;2023-03-04T14:50:47;128.80;6502.40
49052;DHT22;34866;48.670;18.260;2023-03-04T14:53:21;128.90;6502.40
49052;DHT22;34866;48.670;18.260;2023-03-04T14:58:24;128.80;6502.40
49052;DHT22;34866;48.670;18.260;2023-03-04T15:01:13;128.80;6502.40
49052;DHT22;34866;48.670;18.260;2023-03-04T15:03:52;128.80;6502.40
49052;DHT22;34866;48.670;18.260;2023-03-04T15:06:24;128.70;6502.40
49052;DHT22;34866;48.670;18.260;2023-03-04T15:09:20;128.50;6502.40
49052;DHT22;34866;48.670;18.260;2023-03-04T15:12:03;128.50;6502.40
49052;DHT22;34866;48.670;18.260;2023-03-04T15:14:50;128.40;6502.40
49052;DHT22;34866;48.670;18.260;2023-03-04T15:17:35;128.80;6502.40
49052;DHT22;34866;48.670;18.260;2023-03-04T15:22:31;179.90;6502.40
49052;DHT22;34866;48.670;18.260;2023-03-04T15:24:57;204.80;6502.40
49052;DHT22;34866;48.670;18.260;2023-03-04T15:27:26;179.50;6502.40
49052;DHT22;34866;48.670;18.260;2023-03-04T15:29:54;154.50;6502.40
49052;DHT22;34866;48.670;18.260;2023-03-04T15:32:26;205.00;6502.40
49052;DHT22;34866;48.670;18.260;2023-03-04T15:34:54;154.30;6502.40
49052;DHT22;34866;48.670;18.260;2023-03-04T15:37:27;128.70;6502.40
49052;DHT22;34866;48.670;18.260;2023-03-04T15:39:55;128.90;6502.40
49052;DHT22;34866;48.670;18.260;2023-03-04T15:42:22;153.90;6502.40
49052;DHT22;34866;48.670;18.260;2023-03-04T15:44:47;179.20;6502.40
49052;DHT22;34866;48.670;18.260;2023-03-04T15:47:13;154.00;6502.40
49052;DHT22;34866;48.670;18.260;2023-03-04T15:49:40;128.60;6502.40
49052;DHT22;34866;48.670;18.260;2023-03-04T15:52:12;128.60;6502.40
49052;DHT22;34866;48.670;18.260;2023-03-04T15:54:39;128.50;6502.40
49052;DHT22;34866;48.670;18.260;2023-03-04T15:57:11;128.80;6502.40
49052;DHT22;34866;48.670;18.260;2023-03-04T15:59:37;128.20;6502.40
49052;DHT22;34866;48.670;18.260;2023-03-04T16:02:09;153.60;6502.40
49052;DHT22;34866;48.670;18.260;2023-03-04T16:04:36;128.90;6502.40
49052;DHT22;34866;48.670;18.260;2023-03-04T16:07:03;128.30;6502.40
49052;DHT22;34866;48.670;18.260;2023-03-04T16:09:30;128.30;6502.40
49052;DHT22;34866;48.670;18.260;2023-03-04T16:11:56;103.20;6476.80
49052;DHT22;34866;48.670;18.260;2023-03-04T16:14:26;102.90;6476.80
49052;DHT22;34866;48.670;18.260;2023-03-04T16:16:51;102.90;6476.80
49052;DHT22;34866;48.670;18.260;2023-03-04T16:19:18;102.50;409.60
49052;DHT22;34866;48.670;18.260;2023-03-04T16:21:43;102.50;6476.80
49052;DHT22;34866;48.670;18.260;2023-03-04T16:24:18;102.40;6476.80
49052;DHT22;34866;48.670;18.260;2023-03-04T16:26:45;77.70;6476.80
49052;DHT22;34866;48.670;18.260;2023-03-04T16:29:11;102.40;6476.80
49052;DHT22;34866;48.670;18.260;2023-03-04T16:31:36;77.70;6476.80
49052;DHT22;34866;48.670;18.260;2023-03-04T16:34:02;77.60;6476.80
49052;DHT22;34866;48.670;18.260;2023-03-04T16:36:28;77.70;6476.80
49052;DHT22;34866;48.670;18.260;2023-03-04T16:38:55;77.60;6476.80
49052;DHT22;34866;48.670;18.260;2023-03-04T16:41:25;77.60;6476.80
49052;DHT22;34866;48.670;18.260;2023-03-04T16:43:52;77.30;6476.80
49052;DHT22;34866;48.670;18.260;2023-03-04T16:46:18;77.50;6476.80
49052;DHT22;34866;48.670;18.260;2023-03-04T16:48:46;77.50;6476.80
49052;DHT22;34866;48.670;18.260;2023-03-04T16:51:18;77.60;6476.80
49052;DHT22;34866;48.670;18.260;2023-03-04T16:53:53;77.50;6476.80